createdAt,value
2019-04-04T00:00:15.986Z,17.60
2019-04-04T00:01:13.478Z,17.30
2019-04-04T00:02:13.467Z,18.00
2019-04-04T00:03:13.478Z,18.70
2019-04-04T00:04:13.447Z,19.00
2019-04-04T00:05:13.430Z,18.50
2019-04-04T00:06:13.419Z,18.50
2019-04-04T00:07:13.414Z,16.80
2019-04-04T00:08:13.403Z,17.80
2019-04-04T00:09:13.410Z,17.70
2019-04-04T00:10:13.379Z,17.20
2019-04-04T00:11:13.369Z,17.10
2019-04-04T00:12:13.355Z,16.60
2019-04-04T00:13:13.343Z,18.10
2019-04-04T00:14:13.529Z,17.50
2019-04-04T00:15:14.960Z,18.60
2019-04-04T00:16:15.650Z,18.20
2019-04-04T00:17:13.305Z,18.70
2019-04-04T00:18:13.292Z,18.30
2019-04-04T00:19:13.279Z,18.50
2019-04-04T00:20:13.347Z,19.20
2019-04-04T00:21:13.280Z,18.70
2019-04-04T00:22:13.244Z,19.10
2019-04-04T00:23:13.236Z,18.80
2019-04-04T00:24:13.223Z,17.40
2019-04-04T00:25:13.213Z,18.30
2019-04-04T00:26:13.205Z,17.80
2019-04-04T00:27:13.787Z,18.40
2019-04-04T00:28:15.005Z,18.30
2019-04-04T00:29:13.181Z,17.30
2019-04-04T00:30:13.165Z,17.60
2019-04-04T00:31:13.152Z,17.50
2019-04-04T00:32:13.135Z,16.60
2019-04-04T00:33:13.147Z,17.60
2019-04-04T00:34:13.817Z,17.90
2019-04-04T00:35:13.102Z,17.00
2019-04-04T00:36:13.089Z,18.70
2019-04-04T00:37:13.089Z,18.20
2019-04-04T00:38:13.065Z,18.90
2019-04-04T00:39:13.077Z,18.90
2019-04-04T00:40:13.062Z,19.40
2019-04-04T00:41:13.598Z,19.90
2019-04-04T00:42:13.023Z,18.60
2019-04-04T00:43:13.015Z,19.40
2019-04-04T00:44:13.003Z,19.30
2019-04-04T00:45:13.012Z,18.20
2019-04-04T00:46:12.982Z,18.50
2019-04-04T00:47:12.967Z,18.10
2019-04-04T00:48:12.956Z,18.90
2019-04-04T00:49:12.946Z,18.10
2019-04-04T00:50:12.956Z,19.50
2019-04-04T00:51:12.954Z,19.10
2019-04-04T00:52:12.915Z,18.50
2019-04-04T00:53:12.905Z,17.90
2019-04-04T00:54:14.111Z,17.90
2019-04-04T00:55:13.907Z,17.60
2019-04-04T00:56:12.872Z,17.40
2019-04-04T00:57:12.875Z,17.20
2019-04-04T00:58:12.845Z,17.50
2019-04-04T00:59:12.837Z,16.60
2019-04-04T01:00:12.829Z,17.20
2019-04-04T01:01:12.812Z,17.20
2019-04-04T01:02:12.801Z,17.60
2019-04-04T01:03:12.809Z,17.70
2019-04-04T01:04:12.779Z,17.60
2019-04-04T01:05:12.779Z,16.80
2019-04-04T01:06:12.760Z,16.30
2019-04-04T01:07:12.774Z,17.50
2019-04-04T01:08:12.738Z,16.70
2019-04-04T01:09:13.705Z,17.80
2019-04-04T01:10:12.715Z,17.30
2019-04-04T01:11:12.704Z,18.20
2019-04-04T01:12:12.693Z,17.40
2019-04-04T01:13:12.690Z,17.60
2019-04-04T01:14:12.669Z,17.70
2019-04-04T01:15:12.678Z,17.20
2019-04-04T01:16:12.654Z,18.60
2019-04-04T01:17:12.638Z,17.20
2019-04-04T01:18:12.623Z,17.10
2019-04-04T01:19:12.621Z,16.80
2019-04-04T01:20:12.602Z,17.30
2019-04-04T01:21:12.611Z,17.30
2019-04-04T01:22:12.588Z,16.90
2019-04-04T01:23:12.576Z,16.80
2019-04-04T01:24:12.567Z,16.40
2019-04-04T01:25:12.549Z,16.80
2019-04-04T01:26:12.537Z,16.60
2019-04-04T01:27:12.544Z,17.20
2019-04-04T01:28:12.524Z,15.60
2019-04-04T01:29:12.504Z,16.90
2019-04-04T01:30:12.722Z,16.60
2019-04-04T01:31:14.622Z,16.10
2019-04-04T01:32:12.472Z,17.10
2019-04-04T01:33:12.480Z,16.30
2019-04-04T01:34:12.450Z,17.40
2019-04-04T01:35:12.437Z,17.30
2019-04-04T01:36:12.425Z,18.10
2019-04-04T01:37:12.413Z,17.90
2019-04-04T01:38:12.405Z,17.60
2019-04-04T01:39:12.411Z,16.90
2019-04-04T01:40:12.382Z,16.70
2019-04-04T01:41:12.377Z,16.50
2019-04-04T01:42:12.394Z,16.30
2019-04-04T01:43:12.356Z,16.40
2019-04-04T01:44:12.337Z,16.90
2019-04-04T01:45:13.069Z,16.60
2019-04-04T01:46:13.009Z,16.80
2019-04-04T01:47:12.305Z,16.60
2019-04-04T01:48:12.300Z,16.70
2019-04-04T01:49:12.287Z,16.60
2019-04-04T01:50:12.278Z,16.50
2019-04-04T01:51:12.282Z,16.50
2019-04-04T01:52:12.265Z,16.90
2019-04-04T01:53:12.238Z,16.60
2019-04-04T01:54:12.226Z,16.60
2019-04-04T01:55:12.222Z,17.30
2019-04-04T01:56:12.204Z,17.00
2019-04-04T01:57:12.215Z,18.00
2019-04-04T01:58:12.183Z,17.60
2019-04-04T01:59:12.943Z,18.00
2019-04-04T02:00:14.737Z,17.60
2019-04-04T02:01:12.148Z,17.80
2019-04-04T02:02:12.137Z,17.30
2019-04-04T02:03:12.149Z,18.00
2019-04-04T02:04:12.117Z,17.80
2019-04-04T02:05:12.105Z,17.80
2019-04-04T02:06:12.099Z,17.90
2019-04-04T02:07:12.086Z,18.00
2019-04-04T02:08:12.074Z,17.10
2019-04-04T02:09:12.081Z,17.80
2019-04-04T02:10:12.050Z,17.40
2019-04-04T02:11:12.044Z,17.00
2019-04-04T02:12:12.026Z,17.10
2019-04-04T02:13:12.015Z,16.00
2019-04-04T02:14:12.508Z,17.10
2019-04-04T02:15:14.148Z,17.80
2019-04-04T02:16:11.985Z,17.20
2019-04-04T02:17:11.969Z,17.10
2019-04-04T02:18:11.958Z,18.00
2019-04-04T02:19:11.957Z,17.10
2019-04-04T02:20:11.936Z,17.30
2019-04-04T02:21:11.946Z,18.00
2019-04-04T02:22:11.917Z,17.40
2019-04-04T02:23:11.903Z,17.80
2019-04-04T02:24:11.901Z,18.50
2019-04-04T02:25:11.880Z,17.50
2019-04-04T02:26:11.869Z,17.90
2019-04-04T02:27:11.878Z,17.40
2019-04-04T02:28:11.853Z,18.40
2019-04-04T02:29:11.840Z,16.90
2019-04-04T02:30:15.205Z,17.40
2019-04-04T02:31:11.818Z,17.00
2019-04-04T02:32:11.802Z,17.60
2019-04-04T02:33:11.818Z,17.70
2019-04-04T02:34:11.791Z,18.10
2019-04-04T02:35:11.927Z,18.10
2019-04-04T02:36:16.259Z,18.00
2019-04-04T02:37:11.748Z,17.70
2019-04-04T02:38:11.746Z,17.70
2019-04-04T02:39:11.744Z,18.00
2019-04-04T02:40:11.724Z,17.40
2019-04-04T02:41:14.976Z,17.50
2019-04-04T02:42:11.696Z,18.50
2019-04-04T02:43:11.688Z,18.30
2019-04-04T02:44:11.675Z,18.20
2019-04-04T02:45:11.683Z,19.70
2019-04-04T02:46:12.408Z,19.60
2019-04-04T02:47:11.640Z,19.00
2019-04-04T02:48:11.627Z,18.80
2019-04-04T02:49:11.619Z,19.10
2019-04-04T02:50:11.608Z,19.30
2019-04-04T02:51:11.616Z,19.70
2019-04-04T02:52:13.327Z,20.30
2019-04-04T02:53:11.577Z,20.30
2019-04-04T02:54:11.565Z,18.60
2019-04-04T02:55:11.557Z,18.90
2019-04-04T02:56:11.550Z,18.50
2019-04-04T02:57:11.547Z,19.70
2019-04-04T02:58:15.043Z,20.10
2019-04-04T02:59:11.504Z,19.20
2019-04-04T03:00:11.492Z,20.20
2019-04-04T03:01:11.483Z,20.30
2019-04-04T03:02:11.476Z,19.80
2019-04-04T03:03:11.478Z,19.90
2019-04-04T03:04:13.491Z,18.20
2019-04-04T03:05:11.441Z,19.00
2019-04-04T03:06:11.429Z,19.20
2019-04-04T03:07:11.421Z,19.10
2019-04-04T03:08:11.404Z,19.20
2019-04-04T03:09:11.414Z,19.60
2019-04-04T03:10:15.047Z,19.70
2019-04-04T03:11:11.372Z,19.00
2019-04-04T03:12:11.363Z,19.60
2019-04-04T03:13:11.349Z,19.20
2019-04-04T03:14:11.337Z,19.70
2019-04-04T03:15:11.341Z,20.20
2019-04-04T03:16:11.321Z,19.50
2019-04-04T03:17:11.311Z,20.70
2019-04-04T03:18:11.295Z,18.60
2019-04-04T03:19:11.451Z,20.00
2019-04-04T03:20:11.282Z,20.10
2019-04-04T03:21:11.276Z,19.40
2019-04-04T03:22:11.255Z,20.00
2019-04-04T03:23:11.239Z,21.10
2019-04-04T03:24:11.225Z,20.20
2019-04-04T03:25:14.185Z,21.00
2019-04-04T03:26:11.210Z,21.40
2019-04-04T03:27:11.219Z,20.80
2019-04-04T03:28:11.183Z,20.30
2019-04-04T03:29:11.179Z,20.80
2019-04-04T03:30:14.375Z,18.80
2019-04-04T03:31:12.157Z,19.90
2019-04-04T03:32:14.559Z,19.50
2019-04-04T03:33:12.153Z,19.90
2019-04-04T03:34:12.805Z,19.70
2019-04-04T03:35:11.108Z,18.70
2019-04-04T03:36:11.095Z,19.20
2019-04-04T03:37:12.380Z,19.70
2019-04-04T03:38:13.463Z,19.30
2019-04-04T03:39:11.080Z,19.10
2019-04-04T03:40:11.054Z,19.20
2019-04-04T03:41:11.044Z,19.20
2019-04-04T03:42:11.031Z,19.60
2019-04-04T03:43:11.030Z,19.30
2019-04-04T03:44:11.014Z,19.00
2019-04-04T03:45:11.010Z,19.40
2019-04-04T03:46:10.985Z,19.30
2019-04-04T03:47:11.343Z,19.40
2019-04-04T03:48:11.050Z,19.60
2019-04-04T03:49:10.955Z,19.10
2019-04-04T03:50:10.938Z,19.30
2019-04-04T03:51:10.944Z,19.10
2019-04-04T03:52:11.616Z,19.30
2019-04-04T03:53:10.932Z,19.40
2019-04-04T03:54:10.893Z,18.80
2019-04-04T03:55:10.891Z,19.40
2019-04-04T03:56:10.874Z,19.90
2019-04-04T03:57:12.159Z,19.80
2019-04-04T03:58:10.854Z,20.50
2019-04-04T03:59:10.838Z,19.20
2019-04-04T04:00:10.829Z,19.00
2019-04-04T04:01:13.034Z,19.70
2019-04-04T04:02:10.805Z,20.00
2019-04-04T04:03:10.810Z,19.30
2019-04-04T04:04:10.787Z,19.70
2019-04-04T04:05:14.562Z,19.90
2019-04-04T04:06:10.762Z,20.50
2019-04-04T04:07:13.902Z,19.60
2019-04-04T04:08:10.742Z,19.60
2019-04-04T04:09:10.756Z,20.20
2019-04-04T04:10:10.717Z,20.50
2019-04-04T04:11:10.705Z,21.40
2019-04-04T04:12:11.471Z,21.10
2019-04-04T04:13:10.682Z,20.60
2019-04-04T04:14:10.678Z,21.90
2019-04-04T04:15:10.684Z,21.20
2019-04-04T04:16:10.650Z,20.70
2019-04-04T04:17:11.701Z,19.90
2019-04-04T04:18:10.630Z,19.40
2019-04-04T04:19:10.632Z,20.00
2019-04-04T04:20:10.605Z,20.50
2019-04-04T04:21:11.287Z,21.10
2019-04-04T04:22:12.923Z,20.90
2019-04-04T04:23:10.572Z,20.30
2019-04-04T04:24:10.576Z,20.10
2019-04-04T04:25:10.551Z,21.00
2019-04-04T04:26:10.538Z,20.30
2019-04-04T04:27:14.470Z,20.80
2019-04-04T04:28:10.520Z,20.00
2019-04-04T04:29:10.507Z,20.60
2019-04-04T04:30:10.495Z,20.50
2019-04-04T04:31:14.028Z,20.10
2019-04-04T04:32:10.470Z,19.80
2019-04-04T04:33:10.486Z,20.20
2019-04-04T04:34:10.450Z,20.10
2019-04-04T04:35:10.442Z,20.70
2019-04-04T04:36:15.232Z,20.10
2019-04-04T04:37:11.421Z,19.80
2019-04-04T04:38:10.415Z,20.30
2019-04-04T04:39:10.417Z,20.00
2019-04-04T04:40:13.825Z,20.20
2019-04-04T04:41:10.370Z,18.80
2019-04-04T04:42:10.360Z,19.80
2019-04-04T04:43:10.351Z,20.10
2019-04-04T04:44:10.340Z,21.00
2019-04-04T04:45:12.109Z,19.30
2019-04-04T04:46:10.321Z,19.40
2019-04-04T04:47:10.307Z,19.50
2019-04-04T04:48:10.295Z,19.10
2019-04-04T04:49:10.287Z,19.70
2019-04-04T04:50:10.277Z,19.80
2019-04-04T04:51:11.978Z,20.10
2019-04-04T04:52:14.189Z,20.10
2019-04-04T04:53:10.239Z,20.70
2019-04-04T04:54:10.231Z,20.50
2019-04-04T04:55:12.084Z,20.30
2019-04-04T04:56:10.205Z,20.40
2019-04-04T04:57:14.443Z,20.40
2019-04-04T04:58:11.307Z,19.80
2019-04-04T04:59:11.097Z,19.80
2019-04-04T05:00:10.163Z,19.80
2019-04-04T05:01:10.155Z,20.40
2019-04-04T05:02:10.142Z,20.40
2019-04-04T05:03:10.149Z,20.20
2019-04-04T05:04:10.118Z,19.40
2019-04-04T05:05:10.106Z,21.30
2019-04-04T05:06:10.099Z,20.50
2019-04-04T05:07:10.083Z,19.90
2019-04-04T05:08:10.704Z,19.50
2019-04-04T05:09:10.081Z,20.30
2019-04-04T05:10:10.052Z,19.10
2019-04-04T05:11:10.053Z,20.60
2019-04-04T05:12:10.032Z,20.30
2019-04-04T05:13:10.016Z,20.10
2019-04-04T05:14:10.007Z,20.70
2019-04-04T05:15:10.012Z,22.80
2019-04-04T05:16:09.987Z,21.90
2019-04-04T05:17:10.203Z,23.70
2019-04-04T05:18:11.913Z,24.80
2019-04-04T05:19:09.952Z,24.50
2019-04-04T05:20:09.939Z,21.20
2019-04-04T05:21:09.949Z,21.10
2019-04-04T05:22:09.954Z,22.00
2019-04-04T05:23:11.249Z,20.90
2019-04-04T05:24:09.895Z,21.00
2019-04-04T05:25:09.899Z,20.90
2019-04-04T05:26:09.961Z,23.10
2019-04-04T05:27:09.895Z,23.40
2019-04-04T05:28:10.840Z,24.00
2019-04-04T05:29:13.186Z,24.50
2019-04-04T05:30:09.829Z,22.80
2019-04-04T05:31:09.818Z,20.20
2019-04-04T05:32:09.807Z,20.30
2019-04-04T05:33:09.818Z,22.40
2019-04-04T05:34:09.796Z,20.90
2019-04-04T05:35:09.790Z,22.20
2019-04-04T05:36:09.781Z,21.40
2019-04-04T05:37:09.792Z,21.30
2019-04-04T05:38:12.241Z,20.90
2019-04-04T05:39:09.745Z,21.70
2019-04-04T05:40:09.716Z,19.60
2019-04-04T05:41:09.714Z,21.00
2019-04-04T05:42:09.701Z,20.40
2019-04-04T05:43:09.683Z,21.80
2019-04-04T05:44:10.329Z,20.40
2019-04-04T05:45:09.705Z,20.10
2019-04-04T05:46:09.648Z,20.80
2019-04-04T05:47:09.659Z,20.90
2019-04-04T05:48:09.629Z,20.30
2019-04-04T05:49:09.639Z,21.00
2019-04-04T05:50:11.433Z,21.00
2019-04-04T05:51:09.612Z,21.00
2019-04-04T05:52:09.680Z,22.70
2019-04-04T05:53:09.589Z,22.30
2019-04-04T05:54:09.602Z,23.20
2019-04-04T05:55:10.881Z,24.20
2019-04-04T05:56:09.540Z,23.50
2019-04-04T05:57:09.546Z,24.50
2019-04-04T05:58:09.525Z,23.80
2019-04-04T05:59:09.504Z,23.70
2019-04-04T06:00:09.508Z,24.10
2019-04-04T06:01:09.499Z,24.10
2019-04-04T06:02:11.503Z,24.40
2019-04-04T06:03:09.495Z,22.70
2019-04-04T06:04:09.452Z,23.90
2019-04-04T06:05:09.440Z,23.60
2019-04-04T06:06:10.675Z,22.90
2019-04-04T06:07:09.418Z,23.80
2019-04-04T06:08:09.454Z,22.10
2019-04-04T06:09:09.417Z,21.90
2019-04-04T06:10:11.819Z,21.80
2019-04-04T06:11:09.389Z,21.70
2019-04-04T06:12:09.361Z,20.70
2019-04-04T06:13:09.350Z,20.60
2019-04-04T06:14:09.344Z,21.60
2019-04-04T06:15:09.350Z,21.70
2019-04-04T06:16:09.315Z,20.60
2019-04-04T06:17:09.310Z,21.10
2019-04-04T06:18:11.863Z,20.50
2019-04-04T06:19:09.282Z,19.80
2019-04-04T06:20:09.276Z,21.00
2019-04-04T06:21:09.278Z,21.20
2019-04-04T06:22:09.249Z,20.70
2019-04-04T06:23:09.239Z,20.40
2019-04-04T06:24:09.233Z,20.60
2019-04-04T06:25:09.229Z,20.60
2019-04-04T06:26:09.217Z,21.80
2019-04-04T06:27:09.743Z,22.00
2019-04-04T06:28:11.612Z,21.10
2019-04-04T06:29:09.370Z,21.40
2019-04-04T06:30:09.438Z,20.60
2019-04-04T06:31:09.341Z,20.40
2019-04-04T06:32:10.149Z,20.80
2019-04-04T06:33:09.173Z,21.00
2019-04-04T06:34:10.420Z,20.90
2019-04-04T06:35:09.117Z,21.40
2019-04-04T06:36:09.330Z,20.90
2019-04-04T06:37:09.791Z,21.90
2019-04-04T06:38:09.296Z,22.30
2019-04-04T06:39:11.037Z,22.20
2019-04-04T06:40:10.837Z,22.10
2019-04-04T06:41:10.231Z,23.00
2019-04-04T06:42:11.310Z,21.70
2019-04-04T06:43:11.611Z,22.80
2019-04-04T06:44:12.734Z,22.20
2019-04-04T06:45:10.524Z,22.20
2019-04-04T06:46:09.579Z,21.80
2019-04-04T06:47:09.477Z,21.30
2019-04-04T06:48:10.197Z,22.00
2019-04-04T06:49:09.140Z,20.40
2019-04-04T06:50:09.131Z,21.40
2019-04-04T06:51:23.124Z,21.50
2019-04-04T06:52:09.501Z,21.30
2019-04-04T06:53:08.907Z,20.80
2019-04-04T06:54:08.913Z,20.90
2019-04-04T06:55:08.885Z,21.20
2019-04-04T06:56:08.891Z,21.00
2019-04-04T06:57:08.863Z,20.30
2019-04-04T06:58:09.666Z,22.00
2019-04-04T06:59:11.325Z,20.50
2019-04-04T07:00:08.831Z,21.10
2019-04-04T07:01:11.145Z,20.00
2019-04-04T07:02:08.829Z,19.90
2019-04-04T07:03:08.811Z,20.00
2019-04-04T07:04:08.790Z,19.60
2019-04-04T07:05:10.558Z,20.10
2019-04-04T07:06:10.250Z,21.70
2019-04-04T07:07:08.755Z,20.70
2019-04-04T07:08:08.765Z,20.60
2019-04-04T07:09:08.732Z,20.90
2019-04-04T07:10:08.723Z,20.70
2019-04-04T07:11:20.863Z,20.60
2019-04-04T07:12:20.789Z,20.40
2019-04-04T07:13:21.669Z,20.50
2019-04-04T07:14:09.682Z,22.50
2019-04-04T07:15:11.022Z,23.00
2019-04-04T07:16:08.656Z,22.90
2019-04-04T07:17:09.483Z,21.10
2019-04-04T07:18:10.178Z,21.70
2019-04-04T07:19:08.642Z,20.50
2019-04-04T07:20:08.612Z,21.90
2019-04-04T07:21:08.610Z,21.20
2019-04-04T07:22:08.591Z,21.00
2019-04-04T07:23:08.581Z,20.00
2019-04-04T07:24:08.569Z,19.90
2019-04-04T07:25:08.601Z,21.30
2019-04-04T07:26:09.600Z,21.00
2019-04-04T07:27:08.540Z,20.50
2019-04-04T07:28:08.527Z,20.80
2019-04-04T07:29:08.522Z,19.10
2019-04-04T07:30:08.505Z,20.10
2019-04-04T07:31:08.514Z,19.80
2019-04-04T07:32:09.389Z,20.20
2019-04-04T07:33:11.793Z,20.80
2019-04-04T07:34:08.463Z,19.40
2019-04-04T07:35:08.472Z,19.90
2019-04-04T07:36:08.441Z,19.80
2019-04-04T07:37:08.448Z,19.50
2019-04-04T07:38:08.423Z,18.80
2019-04-04T07:39:08.408Z,18.90
2019-04-04T07:40:08.398Z,20.00
2019-04-04T07:41:09.067Z,18.90
2019-04-04T07:42:08.386Z,20.60
2019-04-04T07:43:08.791Z,20.60
2019-04-04T07:44:08.355Z,21.80
2019-04-04T07:45:08.345Z,19.90
2019-04-04T07:46:16.291Z,19.10
2019-04-04T07:47:09.322Z,20.50
2019-04-04T07:48:08.310Z,20.60
2019-04-04T07:49:08.349Z,21.80
2019-04-04T07:50:08.291Z,19.60
2019-04-04T07:51:08.279Z,21.30
2019-04-04T07:52:08.267Z,20.10
2019-04-04T07:53:08.256Z,21.80
2019-04-04T07:54:08.247Z,21.20
2019-04-04T07:55:10.918Z,21.40
2019-04-04T07:56:08.229Z,21.40
2019-04-04T07:57:08.214Z,22.60
2019-04-04T07:58:08.221Z,22.00
2019-04-04T07:59:08.193Z,23.30
2019-04-04T08:00:08.185Z,20.90
2019-04-04T08:01:08.200Z,21.00
2019-04-04T08:02:08.160Z,20.30
2019-04-04T08:03:08.156Z,21.80
2019-04-04T08:04:08.149Z,21.40
2019-04-04T08:05:08.128Z,20.00
2019-04-04T08:06:08.123Z,19.20
2019-04-04T08:07:08.135Z,18.50
2019-04-04T08:08:08.098Z,18.00
2019-04-04T08:09:08.087Z,19.20
2019-04-04T08:10:19.943Z,19.60
2019-04-04T08:11:09.069Z,18.70
2019-04-04T08:12:08.056Z,18.40
2019-04-04T08:13:08.061Z,20.20
2019-04-04T08:14:08.042Z,20.10
2019-04-04T08:15:08.042Z,20.60
2019-04-04T08:16:08.019Z,20.60
2019-04-04T08:17:08.004Z,20.90
2019-04-04T08:18:07.996Z,21.40
2019-04-04T08:19:08.002Z,22.50
2019-04-04T08:20:07.973Z,22.40
2019-04-04T08:21:07.962Z,22.30
2019-04-04T08:22:07.972Z,21.10
2019-04-04T08:23:07.940Z,20.50
2019-04-04T08:24:07.930Z,23.00
2019-04-04T08:25:07.940Z,20.70
2019-04-04T08:26:10.073Z,16.50
2019-04-04T08:27:07.904Z,15.80
2019-04-04T08:28:07.891Z,13.50
2019-04-04T08:29:07.881Z,12.50
2019-04-04T08:30:07.869Z,14.00
2019-04-04T08:31:09.762Z,13.60
2019-04-04T08:32:07.853Z,13.80
2019-04-04T08:33:07.838Z,13.70
2019-04-04T08:34:07.827Z,13.20
2019-04-04T08:35:08.679Z,12.80
2019-04-04T08:36:07.836Z,11.70
2019-04-04T08:37:07.816Z,11.40
2019-04-04T08:38:07.812Z,12.60
2019-04-04T08:39:07.773Z,12.50
2019-04-04T08:40:07.763Z,12.20
2019-04-04T08:41:07.752Z,12.80
2019-04-04T08:42:07.744Z,12.90
2019-04-04T08:43:07.813Z,13.30
2019-04-04T08:44:07.735Z,14.50
2019-04-04T08:45:07.712Z,14.10
2019-04-04T08:46:07.704Z,12.70
2019-04-04T08:47:07.690Z,11.50
2019-04-04T08:48:07.686Z,13.00
2019-04-04T08:49:07.693Z,14.20
2019-04-04T08:50:07.665Z,13.70
2019-04-04T08:51:07.650Z,12.70
2019-04-04T08:52:16.492Z,12.70
2019-04-04T08:53:08.627Z,12.10
2019-04-04T08:54:07.624Z,14.00
2019-04-04T08:55:07.632Z,12.70
2019-04-04T08:56:07.599Z,12.50
2019-04-04T08:57:07.865Z,12.40
2019-04-04T08:58:07.593Z,11.50
2019-04-04T08:59:07.565Z,11.00
2019-04-04T09:00:07.557Z,11.80
2019-04-04T09:01:07.575Z,12.50
2019-04-04T09:02:07.533Z,11.40
2019-04-04T09:03:07.526Z,11.60
2019-04-04T09:04:07.517Z,12.10
2019-04-04T09:05:12.298Z,12.40
2019-04-04T09:06:08.522Z,12.60
2019-04-04T09:07:07.481Z,12.20
2019-04-04T09:08:07.474Z,12.10
2019-04-04T09:09:07.462Z,12.30
2019-04-04T09:10:07.457Z,11.90
2019-04-04T09:11:07.446Z,12.90
2019-04-04T09:12:07.449Z,14.50
2019-04-04T09:13:07.425Z,14.20
2019-04-04T09:14:07.408Z,14.80
2019-04-04T09:15:07.416Z,12.60
2019-04-04T09:16:07.382Z,11.70
2019-04-04T09:17:07.372Z,10.90
2019-04-04T09:18:07.380Z,10.40
2019-04-04T09:19:07.355Z,11.20
2019-04-04T09:20:09.462Z,10.00
2019-04-04T09:21:07.329Z,10.80
2019-04-04T09:22:10.674Z,10.50
2019-04-04T09:23:07.316Z,11.80
2019-04-04T09:24:07.311Z,10.40
2019-04-04T09:25:10.174Z,11.30
2019-04-04T09:26:07.269Z,11.50
2019-04-04T09:27:07.259Z,11.30
2019-04-04T09:28:07.250Z,11.80
2019-04-04T09:29:07.243Z,12.00
2019-04-04T09:30:07.244Z,11.20
2019-04-04T09:31:07.215Z,11.00
2019-04-04T09:32:07.211Z,11.60
2019-04-04T09:33:07.193Z,12.30
2019-04-04T09:34:07.180Z,11.70
2019-04-04T09:35:07.168Z,12.00
2019-04-04T09:36:07.181Z,11.60
2019-04-04T09:37:08.803Z,11.20
2019-04-04T09:38:07.140Z,10.40
2019-04-04T09:39:07.126Z,10.70
2019-04-04T09:40:07.112Z,10.60
2019-04-04T09:41:07.104Z,10.60
2019-04-04T09:42:07.112Z,10.90
2019-04-04T09:43:07.081Z,11.10
2019-04-04T09:44:07.071Z,11.90
2019-04-04T09:45:07.056Z,11.40
2019-04-04T09:46:07.049Z,11.50
2019-04-04T09:47:07.036Z,11.40
2019-04-04T09:48:07.050Z,11.20
2019-04-04T09:49:07.015Z,10.60
2019-04-04T09:50:07.005Z,11.10
2019-04-04T09:51:06.986Z,11.10
2019-04-04T09:52:06.984Z,10.90
2019-04-04T09:53:06.964Z,11.40
2019-04-04T09:54:06.973Z,10.60
2019-04-04T09:55:06.947Z,11.40
2019-04-04T09:56:06.967Z,10.20
2019-04-04T09:57:06.922Z,10.60
2019-04-04T09:58:06.912Z,10.90
2019-04-04T09:59:06.900Z,11.00
2019-04-04T10:00:06.921Z,11.40
2019-04-04T10:01:06.924Z,11.00
2019-04-04T10:02:06.872Z,10.80
2019-04-04T10:03:06.857Z,10.70
2019-04-04T10:04:06.894Z,11.80
2019-04-04T10:05:06.889Z,12.20
2019-04-04T10:06:06.843Z,11.40
2019-04-04T10:07:06.821Z,12.10
2019-04-04T10:08:06.804Z,11.00
2019-04-04T10:09:15.601Z,12.10
2019-04-04T10:10:07.783Z,12.40
2019-04-04T10:11:06.795Z,11.80
2019-04-04T10:12:06.829Z,11.80
2019-04-04T10:13:06.745Z,11.90
2019-04-04T10:14:06.735Z,12.30
2019-04-04T10:15:06.729Z,11.70
2019-04-04T10:16:06.713Z,12.10
2019-04-04T10:17:06.702Z,11.70
2019-04-04T10:18:06.709Z,11.80
2019-04-04T10:19:06.737Z,12.10
2019-04-04T10:20:06.674Z,12.90
2019-04-04T10:21:11.992Z,11.90
2019-04-04T10:22:07.645Z,11.60
2019-04-04T10:23:06.635Z,11.80
2019-04-04T10:24:06.644Z,12.50
2019-04-04T10:25:06.615Z,12.20
2019-04-04T10:26:06.602Z,10.60
2019-04-04T10:27:06.589Z,10.40
2019-04-04T10:28:06.577Z,10.10
2019-04-04T10:29:06.567Z,10.10
2019-04-04T10:30:06.628Z,10.30
2019-04-04T10:31:06.546Z,11.10
2019-04-04T10:32:06.530Z,11.20
2019-04-04T10:33:06.526Z,10.10
2019-04-04T10:34:06.510Z,9.80
2019-04-04T10:35:06.498Z,9.30
2019-04-04T10:36:06.507Z,8.90
2019-04-04T10:37:06.477Z,9.20
2019-04-04T10:38:06.461Z,8.90
2019-04-04T10:39:06.451Z,7.90
2019-04-04T10:40:06.443Z,8.70
2019-04-04T10:41:06.432Z,8.70
2019-04-04T10:42:06.434Z,8.90
2019-04-04T10:43:06.406Z,8.00
2019-04-04T10:44:06.395Z,8.20
2019-04-04T10:45:06.405Z,7.70
2019-04-04T10:46:06.377Z,8.30
2019-04-04T10:47:06.361Z,8.00
2019-04-04T10:48:06.381Z,8.00
2019-04-04T10:49:08.344Z,7.70
2019-04-04T10:50:06.325Z,8.40
2019-04-04T10:51:06.315Z,8.30
2019-04-04T10:52:06.314Z,8.60
2019-04-04T10:53:06.300Z,7.70
2019-04-04T10:54:06.314Z,6.40
2019-04-04T10:55:06.273Z,7.20
2019-04-04T10:56:06.259Z,6.90
2019-04-04T10:57:06.249Z,6.70
2019-04-04T10:58:06.239Z,6.10
2019-04-04T10:59:06.223Z,6.70
2019-04-04T11:00:06.231Z,6.40
2019-04-04T11:01:06.201Z,6.50
2019-04-04T11:02:06.189Z,6.00
2019-04-04T11:03:06.181Z,6.20
2019-04-04T11:04:06.168Z,5.60
2019-04-04T11:05:06.173Z,5.40
2019-04-04T11:06:06.185Z,5.60
2019-04-04T11:07:06.137Z,6.10
2019-04-04T11:08:06.125Z,6.00
2019-04-04T11:09:06.121Z,6.00
2019-04-04T11:10:06.112Z,5.60
2019-04-04T11:11:06.097Z,6.20
2019-04-04T11:12:06.107Z,6.20
2019-04-04T11:13:06.077Z,6.30
2019-04-04T11:14:06.061Z,6.40
2019-04-04T11:15:06.054Z,6.20
2019-04-04T11:16:06.045Z,6.20
2019-04-04T11:17:06.031Z,6.10
2019-04-04T11:18:06.043Z,5.80
2019-04-04T11:19:06.010Z,6.10
2019-04-04T11:20:06.004Z,5.60
2019-04-04T11:21:05.988Z,5.60
2019-04-04T11:22:06.001Z,5.80
2019-04-04T11:23:05.981Z,6.40
2019-04-04T11:24:05.982Z,5.80
2019-04-04T11:25:05.966Z,6.10
2019-04-04T11:26:05.942Z,5.40
2019-04-04T11:27:06.278Z,5.90
2019-04-04T11:28:05.920Z,5.20
2019-04-04T11:29:05.902Z,4.90
2019-04-04T11:30:05.910Z,5.30
2019-04-04T11:31:05.888Z,5.20
2019-04-04T11:32:05.878Z,5.50
2019-04-04T11:33:05.869Z,5.20
2019-04-04T11:34:05.852Z,5.00
2019-04-04T11:35:05.842Z,5.10
2019-04-04T11:36:05.852Z,5.10
2019-04-04T11:37:05.822Z,4.50
2019-04-04T11:38:05.813Z,4.90
2019-04-04T11:39:05.798Z,4.50
2019-04-04T11:40:05.786Z,4.30
2019-04-04T11:41:05.798Z,4.40
2019-04-04T11:42:05.832Z,4.80
2019-04-04T11:43:05.777Z,6.50
2019-04-04T11:44:05.744Z,5.70
2019-04-04T11:45:05.732Z,5.80
2019-04-04T11:46:05.770Z,7.10
2019-04-04T11:47:05.706Z,5.80
2019-04-04T11:48:05.716Z,4.90
2019-04-04T11:49:05.684Z,4.60
2019-04-04T11:50:05.673Z,4.90
2019-04-04T11:51:05.663Z,4.70
2019-04-04T11:52:05.655Z,4.40
2019-04-04T11:53:05.638Z,3.70
2019-04-04T11:54:05.646Z,3.50
2019-04-04T11:55:05.624Z,2.80
2019-04-04T11:56:05.605Z,3.20
2019-04-04T11:57:05.593Z,3.00
2019-04-04T11:58:05.585Z,3.20
2019-04-04T11:59:08.048Z,3.20
2019-04-04T12:00:05.584Z,3.50
2019-04-04T12:01:05.551Z,3.40
2019-04-04T12:02:05.539Z,3.30
2019-04-04T12:03:05.532Z,3.40
2019-04-04T12:04:05.523Z,3.20
2019-04-04T12:05:05.539Z,3.00
2019-04-04T12:06:05.522Z,3.00
2019-04-04T12:07:05.482Z,2.90
2019-04-04T12:08:05.470Z,3.20
2019-04-04T12:09:05.473Z,2.90
2019-04-04T12:10:07.792Z,3.10
2019-04-04T12:11:05.452Z,3.20
2019-04-04T12:12:05.448Z,3.30
2019-04-04T12:13:05.427Z,3.10
2019-04-04T12:14:05.405Z,3.10
2019-04-04T12:15:05.391Z,3.10
2019-04-04T12:16:05.395Z,3.50
2019-04-04T12:17:05.374Z,3.40
2019-04-04T12:18:05.375Z,3.20
2019-04-04T12:19:05.343Z,3.50
2019-04-04T12:20:05.334Z,3.50
2019-04-04T12:21:05.330Z,3.30
2019-04-04T12:22:05.346Z,3.30
2019-04-04T12:23:05.302Z,3.40
2019-04-04T12:24:05.309Z,3.30
2019-04-04T12:25:05.280Z,3.80
2019-04-04T12:26:05.265Z,4.20
2019-04-04T12:27:05.258Z,3.70
2019-04-04T12:28:05.242Z,3.70
2019-04-04T12:29:05.233Z,3.30
2019-04-04T12:30:05.242Z,3.00
2019-04-04T12:31:05.295Z,3.00
2019-04-04T12:32:05.203Z,3.20
2019-04-04T12:33:05.221Z,2.80
2019-04-04T12:34:05.177Z,3.00
2019-04-04T12:35:05.177Z,3.10
2019-04-04T12:36:05.171Z,3.80
2019-04-04T12:37:05.144Z,3.90
2019-04-04T12:38:05.133Z,3.70
2019-04-04T12:39:05.123Z,4.20
2019-04-04T12:40:05.108Z,3.60
2019-04-04T12:41:05.097Z,4.00
2019-04-04T12:42:05.103Z,4.10
2019-04-04T12:43:05.076Z,5.60
2019-04-04T12:44:05.063Z,6.40
2019-04-04T12:45:05.394Z,4.50
2019-04-04T12:46:05.038Z,3.40
2019-04-04T12:47:05.030Z,3.40
2019-04-04T12:48:05.031Z,3.50
2019-04-04T12:49:05.032Z,3.80
2019-04-04T12:50:04.994Z,3.90
2019-04-04T12:51:04.986Z,4.20
2019-04-04T12:52:04.975Z,4.10
2019-04-04T12:53:04.962Z,4.30
2019-04-04T12:54:04.968Z,4.10
2019-04-04T12:55:04.939Z,4.70
2019-04-04T12:56:04.923Z,4.50
2019-04-04T12:57:04.919Z,5.10